Lorraine, New York
Current Conditions -  °F | °C
As of 8:56 AM on Monday 26 Jan 2015 (Local Time) from KART Reporting Station
Clear Clear  
Wind Chill: -19°   Ceiling: Unl
Heat Index: -1°   Visibility: 10mi
Dew Point: -10°   Wind: 13mph
Humidity: 66%   Direction: 30°NNE
Pressure: 30.09"   Gusts: NA
Location:  43.77°N, 75.96°W
Report Text: KART 261356Z AUTO 03011KT 10SM CLR M18/M23 A3009 RMK AO2 SLP205 T11831233
Loading
Personal Weather Stations






























Interactive Weather Map New forecast layout! Learn more

10-Day Weather Forecast

Advertisements
Track Severe Weather on mobile